createdAt,value
2022-08-09T00:01:04.048Z,24.4
2022-08-09T00:02:14.178Z,24.4
2022-08-09T00:03:24.286Z,14.8
2022-08-09T00:04:34.413Z,15.1
2022-08-09T00:05:44.787Z,4.8
2022-08-09T00:06:54.644Z,14.5
2022-08-09T00:08:03.776Z,17.4
2022-08-09T00:09:14.155Z,12.8
2022-08-09T00:10:24.008Z,24.8
2022-08-09T00:11:34.389Z,15.4
2022-08-09T00:12:43.537Z,13.2
2022-08-09T00:13:53.377Z,13.8
2022-08-09T00:15:03.767Z,14.1
2022-08-09T00:16:13.622Z,13.5
2022-08-09T00:17:23.747Z,14.1
2022-08-09T00:18:33.856Z,12.2
2022-08-09T00:19:43.965Z,15.4
2022-08-09T00:22:04.209Z,14.8
2022-08-09T00:23:14.319Z,14.5
2022-08-09T00:24:24.706Z,13.8
2022-08-09T00:25:34.558Z,18.3
2022-08-09T00:26:44.683Z,8.3
2022-08-09T00:27:53.823Z,24.1
2022-08-09T00:29:03.927Z,3.2
2022-08-09T00:30:14.040Z,4.5
2022-08-09T00:31:24.437Z,12.8
2022-08-09T00:32:34.283Z,23.2
2022-08-09T00:33:44.409Z,22.2
2022-08-09T00:36:04.639Z,13.8
2022-08-09T00:37:14.746Z,14.1
2022-08-09T00:38:24.881Z,3.8
2022-08-09T00:39:34.990Z,15.7
2022-08-09T00:40:45.115Z,14.1
2022-08-09T00:43:05.345Z,2.5
2022-08-09T00:44:14.487Z,18.6
2022-08-09T00:45:23.615Z,14.1
2022-08-09T00:46:33.733Z,13.8
2022-08-09T00:47:43.865Z,13.2
2022-08-09T00:48:53.975Z,23.5
2022-08-09T00:50:04.098Z,13.8
2022-08-09T00:51:14.469Z,13.8
2022-08-09T00:52:24.319Z,13.8
2022-08-09T00:53:34.445Z,13.8
2022-08-09T00:54:44.571Z,13.8
2022-08-09T00:55:54.675Z,23.2
2022-08-09T00:57:03.814Z,16.4
2022-08-09T00:58:13.222Z,14.1
2022-08-09T00:59:23.077Z,13.5
2022-08-09T01:00:33.185Z,13.5
2022-08-09T01:01:43.311Z,22.5
2022-08-09T01:02:53.432Z,13.8
2022-08-09T01:04:03.806Z,13.2
2022-08-09T01:05:13.673Z,3.2
2022-08-09T01:06:23.779Z,7
2022-08-09T01:07:33.901Z,12.8
2022-08-09T01:08:44.279Z,16.1
2022-08-09T01:11:04.256Z,23.8
2022-08-09T01:13:24.481Z,16.7
2022-08-09T01:14:33.637Z,13.5
2022-08-09T01:15:42.772Z,14.1
2022-08-09T01:18:03.263Z,14.5
2022-08-09T01:19:13.122Z,13.5
2022-08-09T01:20:23.226Z,23.2
2022-08-09T01:21:33.345Z,12.8
2022-08-09T01:22:43.462Z,22.5
2022-08-09T01:23:53.599Z,3.8
2022-08-09T01:25:03.706Z,14.1
2022-08-09T01:26:13.816Z,22.8
2022-08-09T01:27:23.940Z,13.8
2022-08-09T01:28:34.068Z,12.8
2022-08-09T01:29:44.442Z,4.5
2022-08-09T01:32:03.690Z,3.8
2022-08-09T01:33:12.841Z,13.5
2022-08-09T01:34:21.707Z,23.8
2022-08-09T01:35:31.818Z,22.5
2022-08-09T01:36:41.939Z,6.4
2022-08-09T01:37:52.049Z,7.7
2022-08-09T01:39:02.171Z,12.8
2022-08-09T01:40:12.295Z,18.6
2022-08-09T01:41:22.672Z,16.4
2022-08-09T01:42:32.522Z,11.6
2022-08-09T01:43:42.645Z,12.8
2022-08-09T01:46:02.879Z,7.7
2022-08-09T01:47:13.258Z,12.8
2022-08-09T01:48:23.106Z,11.2
2022-08-09T01:49:32.248Z,4.8
2022-08-09T01:50:42.364Z,13.2
2022-08-09T01:51:52.487Z,13.5
2022-08-09T01:53:02.608Z,19
2022-08-09T01:54:12.710Z,13.2
2022-08-09T01:55:22.842Z,16.1
2022-08-09T01:56:32.946Z,12.8
2022-08-09T01:57:43.080Z,5.1
2022-08-09T02:00:02.325Z,6.1
2022-08-09T02:01:11.465Z,22.2
2022-08-09T02:02:21.579Z,4.8
2022-08-09T02:03:31.708Z,22.5
2022-08-09T02:04:41.816Z,12.8
2022-08-09T02:05:51.940Z,13.2
2022-08-09T02:07:02.063Z,12.8
2022-08-09T02:08:12.171Z,6.1
2022-08-09T02:09:22.298Z,2.5
2022-08-09T02:10:31.433Z,22.5
2022-08-09T02:11:40.569Z,3.5
2022-08-09T02:14:00.803Z,13.2
2022-08-09T02:15:10.914Z,13.2
2022-08-09T02:16:21.049Z,6.1
2022-08-09T02:17:31.159Z,22.5
2022-08-09T02:18:41.281Z,5.4
2022-08-09T02:19:51.399Z,2.9
2022-08-09T02:21:01.503Z,23.5
2022-08-09T02:22:11.628Z,13.2
2022-08-09T02:23:21.737Z,2.5
2022-08-09T02:24:31.858Z,11.9
2022-08-09T02:25:41.984Z,13.2
2022-08-09T02:28:01.230Z,12.5
2022-08-09T02:29:10.640Z,23.2
2022-08-09T02:30:19.506Z,10.6
2022-08-09T02:31:29.887Z,13.2
2022-08-09T02:32:39.751Z,12.5
2022-08-09T02:33:49.851Z,12.5
2022-08-09T02:34:59.977Z,13.5
2022-08-09T02:36:10.099Z,12.8
2022-08-09T02:37:20.205Z,22.8
2022-08-09T02:38:30.332Z,3.5
2022-08-09T02:39:40.439Z,23.8
2022-08-09T02:40:50.562Z,21.9
2022-08-09T02:41:59.715Z,12.5
2022-08-09T02:43:08.848Z,22.8
2022-08-09T02:44:18.951Z,2.2
2022-08-09T02:45:29.086Z,3.8
2022-08-09T02:46:39.187Z,13.5
2022-08-09T02:50:09.544Z,3.8
2022-08-09T02:51:19.659Z,19.3
2022-08-09T02:52:29.776Z,12.2
2022-08-09T02:53:39.906Z,22.2
2022-08-09T02:54:50.025Z,13.2
2022-08-09T02:56:00.396Z,10.3
2022-08-09T02:57:09.281Z,14.8
2022-08-09T02:58:18.425Z,22.5
2022-08-09T02:59:28.535Z,23.2
2022-08-09T03:00:38.661Z,14.1
2022-08-09T03:01:48.763Z,24.8
2022-08-09T03:02:58.889Z,15.4
2022-08-09T03:04:09.014Z,12.5
2022-08-09T03:05:19.124Z,11.6
2022-08-09T03:06:29.501Z,10.6
2022-08-09T03:07:39.350Z,13.8
2022-08-09T03:08:49.468Z,12.8
2022-08-09T03:09:58.630Z,13.2
2022-08-09T03:11:07.763Z,5.1
2022-08-09T03:12:17.869Z,12.5
2022-08-09T03:13:28.246Z,10.9
2022-08-09T03:14:38.386Z,13.5
2022-08-09T03:15:48.220Z,12.8
2022-08-09T03:16:58.343Z,13.2
2022-08-09T03:18:08.470Z,12.8
2022-08-09T03:19:18.572Z,12.8
2022-08-09T03:20:28.699Z,13.5
2022-08-09T03:21:38.817Z,12.5
2022-08-09T03:22:47.967Z,2.5
2022-08-09T03:23:57.086Z,2.9
2022-08-09T03:25:07.205Z,2.9
2022-08-09T03:26:17.322Z,11.6
2022-08-09T03:27:27.443Z,12.5
2022-08-09T03:28:37.571Z,12.5
2022-08-09T03:30:57.802Z,23.2
2022-08-09T03:32:07.908Z,12.5
2022-08-09T03:33:18.033Z,12.5
2022-08-09T03:34:28.148Z,3.2
2022-08-09T03:35:38.266Z,22.8
2022-08-09T03:36:48.389Z,12.8
2022-08-09T03:37:58.765Z,11.9
2022-08-09T03:39:07.636Z,12.2
2022-08-09T03:40:18.015Z,11.6
2022-08-09T03:41:27.868Z,24.1
2022-08-09T03:42:37.987Z,12.2
2022-08-09T03:44:58.220Z,12.2
2022-08-09T03:46:07.368Z,19.3
2022-08-09T03:47:16.499Z,20.9
2022-08-09T03:48:26.621Z,3.2
2022-08-09T03:49:36.735Z,12.8
2022-08-09T03:51:56.985Z,12.8
2022-08-09T03:53:07.088Z,12.5
2022-08-09T03:54:17.216Z,22.2
2022-08-09T03:55:27.597Z,19.3
2022-08-09T03:56:37.439Z,13.2
2022-08-09T03:57:47.567Z,13.2
2022-08-09T03:58:57.679Z,23.8
2022-08-09T04:00:08.059Z,12.8
2022-08-09T04:01:18.181Z,12.2
2022-08-09T04:02:27.050Z,20.9
2022-08-09T04:03:37.171Z,13.5
2022-08-09T04:05:57.403Z,-4.9
2022-08-09T04:07:06.562Z,25.4
2022-08-09T04:08:15.679Z,11.9
2022-08-09T04:09:25.807Z,12.2
2022-08-09T04:10:36.178Z,12.5
2022-08-09T04:12:56.165Z,10.6
2022-08-09T04:14:06.267Z,2.5
2022-08-09T04:15:16.386Z,12.8
2022-08-09T04:16:26.518Z,13.2
2022-08-09T04:17:36.627Z,12.5
2022-08-09T04:18:46.749Z,12.5
2022-08-09T04:19:56.859Z,12.8
2022-08-09T04:21:06.983Z,21.5
2022-08-09T04:22:17.091Z,15.7
2022-08-09T04:23:26.231Z,2.9
2022-08-09T04:24:36.343Z,14.8
2022-08-09T04:25:46.464Z,2.9
2022-08-09T04:26:56.842Z,22.5
2022-08-09T04:28:06.955Z,12.8
2022-08-09T04:29:16.820Z,2.9
2022-08-09T04:30:26.937Z,19.9
2022-08-09T04:31:37.064Z,12.8
2022-08-09T04:33:56.321Z,0.6
2022-08-09T04:35:05.446Z,23.5
2022-08-09T04:36:15.573Z,4.8
2022-08-09T04:37:24.711Z,12.8
2022-08-09T04:38:33.846Z,13.5
2022-08-09T04:40:54.079Z,23.5
2022-08-09T04:42:04.203Z,13.2
2022-08-09T04:43:14.316Z,12.8
2022-08-09T04:44:24.694Z,19.6
2022-08-09T04:45:34.546Z,4.5
2022-08-09T04:47:54.796Z,3.8
2022-08-09T04:49:04.907Z,19.9
2022-08-09T04:50:15.015Z,13.8
2022-08-09T04:51:25.000Z,13.2
2022-08-09T04:52:34.289Z,23.5
2022-08-09T04:53:43.429Z,13.2
2022-08-09T04:54:53.534Z,13.8
2022-08-09T04:56:03.658Z,13.2
2022-08-09T04:57:13.771Z,13.5
2022-08-09T04:58:24.149Z,3.8
2022-08-09T04:59:34.010Z,14.1
2022-08-09T05:00:44.133Z,23.8
2022-08-09T05:01:54.242Z,16.4
2022-08-09T05:03:04.367Z,13.5
2022-08-09T05:04:14.470Z,13.8
2022-08-09T05:05:23.878Z,4.1
2022-08-09T05:06:32.756Z,2.9
2022-08-09T05:07:42.882Z,10.9
2022-08-09T05:08:53.249Z,13.5
2022-08-09T05:10:03.116Z,13.5
2022-08-09T05:11:13.218Z,16.1
2022-08-09T05:12:23.598Z,16.1
2022-08-09T05:13:33.464Z,13.8
2022-08-09T05:15:53.959Z,14.5
2022-08-09T05:17:03.824Z,24.4
2022-08-09T05:18:13.928Z,16.7
2022-08-09T05:19:24.055Z,24.4
2022-08-09T05:20:34.440Z,4.1
2022-08-09T05:21:43.301Z,12.2
2022-08-09T05:22:53.426Z,14.1
2022-08-09T05:24:03.532Z,14.8
2022-08-09T05:25:13.642Z,13.2
2022-08-09T05:26:23.771Z,7.4
2022-08-09T05:27:33.882Z,15.1
2022-08-09T05:28:44.006Z,15.4
2022-08-09T05:29:54.116Z,20.9
2022-08-09T05:31:03.524Z,14.5
2022-08-09T05:32:12.391Z,23.8
2022-08-09T05:33:22.506Z,11.9
2022-08-09T05:34:32.628Z,11.6
2022-08-09T05:35:42.751Z,14.5
2022-08-09T05:36:52.860Z,12.5
2022-08-09T05:38:02.980Z,14.8
2022-08-09T05:39:13.103Z,5.1
2022-08-09T05:40:23.210Z,6.7
2022-08-09T05:41:33.339Z,24.1
2022-08-09T05:42:43.715Z,21.9
2022-08-09T05:43:53.566Z,20.9
2022-08-09T05:45:03.682Z,13.8
2022-08-09T05:46:13.806Z,15.1
2022-08-09T05:47:22.940Z,15.7
2022-08-09T05:48:33.048Z,15.1
2022-08-09T05:49:43.166Z,15.7
2022-08-09T05:50:53.292Z,19.9
2022-08-09T05:52:03.414Z,9.9
2022-08-09T05:53:13.798Z,7
2022-08-09T05:54:23.643Z,16.1
2022-08-09T05:55:34.023Z,14.8
2022-08-09T05:56:43.889Z,16.4
2022-08-09T05:57:53.998Z,5.1
2022-08-09T05:59:04.120Z,13.8
2022-08-09T06:00:14.228Z,22.2
2022-08-09T06:01:24.359Z,15.1
2022-08-09T06:02:33.477Z,7.7
2022-08-09T06:03:43.600Z,14.5
2022-08-09T06:04:53.722Z,8.7
2022-08-09T06:06:03.832Z,15.4
2022-08-09T06:07:13.951Z,6.7
2022-08-09T06:08:24.072Z,24.8
2022-08-09T06:09:34.442Z,22.2
2022-08-09T06:11:54.419Z,15.4
2022-08-09T06:13:04.540Z,6.4
2022-08-09T06:14:14.663Z,12.5
2022-08-09T06:15:24.784Z,16.1
2022-08-09T06:16:34.895Z,15.7
2022-08-09T06:17:44.018Z,16.7
2022-08-09T06:18:54.400Z,9
2022-08-09T06:20:04.265Z,2.5
2022-08-09T06:21:14.383Z,16.1
2022-08-09T06:22:24.490Z,14.8
2022-08-09T06:23:34.618Z,14.8
2022-08-09T06:24:44.988Z,15.7
2022-08-09T06:25:54.851Z,25.4
2022-08-09T06:27:04.961Z,16.1
2022-08-09T06:29:25.195Z,25.4
2022-08-09T06:30:35.320Z,16.7
2022-08-09T06:31:45.443Z,16.4
2022-08-09T06:32:54.573Z,24.8
2022-08-09T06:34:04.948Z,17
2022-08-09T06:35:14.809Z,16.4
2022-08-09T06:36:25.183Z,11.2
2022-08-09T06:37:35.040Z,8.3
2022-08-09T06:38:45.168Z,16.1
2022-08-09T06:39:55.274Z,11.6
2022-08-09T06:41:05.389Z,11.9
2022-08-09T06:42:15.508Z,10.9
2022-08-09T06:43:25.630Z,16.4
2022-08-09T06:44:35.742Z,20.9
2022-08-09T06:45:45.872Z,10.3
2022-08-09T06:46:55.978Z,15.1
2022-08-09T06:48:05.111Z,20.6
2022-08-09T06:49:15.485Z,16.7
2022-08-09T06:50:25.341Z,16.1
2022-08-09T06:51:35.468Z,23.2
2022-08-09T06:52:45.575Z,26.1
2022-08-09T06:53:55.699Z,18
2022-08-09T06:55:05.820Z,26.4
2022-08-09T06:56:15.938Z,17.4
2022-08-09T06:57:26.312Z,22.2
2022-08-09T06:58:36.176Z,24.1
2022-08-09T06:59:46.291Z,25.1
2022-08-09T07:00:56.409Z,16.7
2022-08-09T07:02:06.533Z,20.3
2022-08-09T07:04:25.784Z,16.7
2022-08-09T07:05:35.895Z,11.9
2022-08-09T07:06:46.018Z,25.1
2022-08-09T07:07:56.126Z,22.2
2022-08-09T07:09:06.254Z,16.4
2022-08-09T07:10:16.373Z,8.7
2022-08-09T07:11:26.474Z,19.9
2022-08-09T07:12:36.594Z,9.3
2022-08-09T07:13:46.714Z,17
2022-08-09T07:14:56.841Z,17.7
2022-08-09T07:16:06.945Z,17.4
2022-08-09T07:17:17.330Z,24.1
2022-08-09T07:18:26.201Z,14.5
2022-08-09T07:19:36.311Z,10.6
2022-08-09T07:20:46.437Z,18.3
2022-08-09T07:21:56.546Z,22.8
2022-08-09T07:23:06.671Z,17
2022-08-09T07:24:16.792Z,18
2022-08-09T07:25:27.162Z,24.8
2022-08-09T07:28:57.253Z,10.3
2022-08-09T07:30:07.383Z,18.3
2022-08-09T07:31:17.490Z,18.6
2022-08-09T07:32:27.603Z,20.3
2022-08-09T07:33:36.742Z,18.3
2022-08-09T07:34:46.870Z,13.2
2022-08-09T07:35:56.983Z,13.2
2022-08-09T07:37:07.108Z,18.6
2022-08-09T07:38:17.217Z,18.3
2022-08-09T07:40:37.446Z,18.6
2022-08-09T07:41:46.597Z,11.9
2022-08-09T07:42:55.720Z,20.6
2022-08-09T07:44:05.841Z,18
2022-08-09T07:45:15.962Z,13.2
2022-08-09T07:46:26.089Z,18.6
2022-08-09T07:47:36.199Z,16.1
2022-08-09T07:48:46.323Z,19.3
2022-08-09T07:49:56.434Z,19.3
2022-08-09T07:51:06.559Z,26.7
2022-08-09T07:52:16.664Z,12.8
2022-08-09T07:53:26.790Z,26.4
2022-08-09T07:54:35.932Z,26.4
2022-08-09T07:56:55.441Z,26.7
2022-08-09T07:58:05.310Z,14.5
2022-08-09T07:59:15.425Z,19.9
2022-08-09T08:00:25.796Z,14.1
2022-08-09T08:01:34.683Z,12.8
2022-08-09T08:03:54.916Z,25.1
2022-08-09T08:05:05.021Z,20.6
2022-08-09T08:06:15.159Z,20.3
2022-08-09T08:07:25.270Z,20.3
2022-08-09T08:08:35.641Z,20.3
2022-08-09T08:09:45.495Z,19.9
2022-08-09T08:10:55.626Z,23.8
2022-08-09T08:12:05.743Z,20.3
2022-08-09T08:14:25.971Z,26.7
2022-08-09T08:15:35.381Z,26.7
2022-08-09T08:16:44.244Z,14.8
2022-08-09T08:17:54.358Z,19.9
2022-08-09T08:19:04.476Z,24.8
2022-08-09T08:20:14.605Z,19.6
2022-08-09T08:21:24.726Z,19.9
2022-08-09T08:22:34.836Z,17.7
2022-08-09T08:24:55.068Z,19.9
2022-08-09T08:26:05.445Z,22.8
2022-08-09T08:27:15.310Z,14.1
2022-08-09T08:28:25.423Z,19.9
2022-08-09T08:29:35.548Z,27.3
2022-08-09T08:30:45.922Z,15.1
2022-08-09T08:31:55.052Z,23.2
2022-08-09T08:33:04.908Z,20.3
2022-08-09T08:34:15.027Z,14.1
2022-08-09T08:35:25.146Z,19.9
2022-08-09T08:36:35.267Z,19.6
2022-08-09T08:37:45.378Z,19.3
2022-08-09T08:38:55.503Z,25.7
2022-08-09T08:40:05.626Z,23.2
2022-08-09T08:41:14.763Z,19.6
2022-08-09T08:42:23.901Z,27
2022-08-09T08:43:34.007Z,21.2
2022-08-09T08:44:44.133Z,26.1
2022-08-09T08:45:54.507Z,20.6
2022-08-09T08:47:04.367Z,18.3
2022-08-09T08:48:14.492Z,15.1
2022-08-09T08:49:24.601Z,19.9
2022-08-09T08:50:34.727Z,20.3
2022-08-09T08:52:54.968Z,23.8
2022-08-09T08:54:05.068Z,19.6
2022-08-09T08:55:15.197Z,20.3
2022-08-09T08:56:25.306Z,20.6
2022-08-09T08:57:34.452Z,20.9
2022-08-09T08:59:54.690Z,19.9
2022-08-09T09:01:03.827Z,21.2
2022-08-09T09:02:12.961Z,25.7
2022-08-09T09:03:23.069Z,24.8
2022-08-09T09:04:33.197Z,20.3
2022-08-09T09:06:53.443Z,27
2022-08-09T09:08:03.805Z,24.1
2022-08-09T09:09:13.000Z,20.6
2022-08-09T09:10:23.797Z,20.9
2022-08-09T09:11:33.900Z,20.3
2022-08-09T09:12:44.280Z,20.3
2022-08-09T09:13:54.147Z,20.6
2022-08-09T09:15:04.258Z,21.2
2022-08-09T09:16:14.383Z,18
2022-08-09T09:17:23.514Z,21.5
2022-08-09T09:18:33.618Z,18.6
2022-08-09T09:19:43.744Z,13.5
2022-08-09T09:20:53.866Z,15.1
2022-08-09T09:22:04.237Z,15.1
2022-08-09T09:23:14.101Z,26.1
2022-08-09T09:24:24.208Z,21.2
2022-08-09T09:25:34.338Z,27.3
2022-08-09T09:27:53.605Z,19.6
2022-08-09T09:29:02.991Z,27.7
2022-08-09T09:30:12.848Z,20.6
2022-08-09T09:31:21.988Z,21.2
2022-08-09T09:32:31.126Z,15.4
2022-08-09T09:33:41.245Z,15.4
2022-08-09T09:34:51.367Z,23.5
2022-08-09T09:36:01.475Z,21.5
2022-08-09T09:37:11.600Z,22.2
2022-08-09T09:38:21.709Z,21.9
2022-08-09T09:39:31.830Z,21.2
2022-08-09T09:40:41.945Z,20.9
2022-08-09T09:41:52.063Z,21.5
2022-08-09T09:43:02.190Z,16.1
2022-08-09T09:44:12.302Z,21.2
2022-08-09T09:45:22.427Z,14.1
2022-08-09T09:46:32.533Z,21.5
2022-08-09T09:47:41.676Z,16.4
2022-08-09T09:48:51.786Z,28.6
2022-08-09T09:50:01.901Z,21.5
2022-08-09T09:51:12.026Z,22.2
2022-08-09T09:53:32.270Z,22.2
2022-08-09T09:54:42.636Z,15.4
2022-08-09T09:55:52.494Z,21.9
2022-08-09T09:57:02.881Z,22.8
2022-08-09T09:58:12.723Z,18
2022-08-09T09:59:22.848Z,22.5
2022-08-09T10:00:32.957Z,24.4
2022-08-09T10:01:43.092Z,22.5
2022-08-09T10:02:52.209Z,20.9
2022-08-09T10:04:02.335Z,21.9
2022-08-09T10:05:12.461Z,25.1
2022-08-09T10:06:22.572Z,22.5
2022-08-09T10:07:32.693Z,22.2
2022-08-09T10:08:42.801Z,22.5
2022-08-09T10:09:52.925Z,22.5
2022-08-09T10:11:03.044Z,23.2
2022-08-09T10:12:13.417Z,27.3
2022-08-09T10:13:23.272Z,26.7
2022-08-09T10:14:33.646Z,22.2
2022-08-09T10:15:43.504Z,22.2
2022-08-09T10:16:53.631Z,22.5
2022-08-09T10:18:02.750Z,22.5
2022-08-09T10:19:12.880Z,22.2
2022-08-09T10:20:22.987Z,22.8
2022-08-09T10:21:33.110Z,23.2
2022-08-09T10:23:53.345Z,28
2022-08-09T10:25:03.463Z,24.1
2022-08-09T10:26:13.575Z,23.2
2022-08-09T10:27:23.691Z,23.5
2022-08-09T10:28:33.819Z,22.8
2022-08-09T10:29:43.930Z,22.8
2022-08-09T10:30:54.054Z,23.2
2022-08-09T10:32:04.165Z,23.5
2022-08-09T10:33:13.304Z,27.7
2022-08-09T10:34:23.412Z,10.9
2022-08-09T10:35:33.795Z,21.9
2022-08-09T10:36:43.665Z,23.2
2022-08-09T10:37:54.036Z,18.6
2022-08-09T10:39:03.869Z,24.1
2022-08-09T10:40:13.985Z,24.4
2022-08-09T10:41:24.110Z,28.6
2022-08-09T10:42:34.235Z,24.1
2022-08-09T10:44:54.475Z,24.1
2022-08-09T10:46:04.578Z,23.8
2022-08-09T10:47:14.692Z,19.9
2022-08-09T10:48:23.826Z,26.4
2022-08-09T10:49:33.954Z,25.7
2022-08-09T10:50:44.072Z,22.2
2022-08-09T10:51:54.461Z,31.2
2022-08-09T10:53:04.310Z,20.3
2022-08-09T10:54:14.698Z,25.7
2022-08-09T10:55:24.538Z,24.4
2022-08-09T10:56:34.663Z,29.9
2022-08-09T10:58:54.894Z,28
2022-08-09T11:00:05.016Z,28.6
2022-08-09T11:01:15.123Z,29.3
2022-08-09T11:02:25.249Z,34.8
2022-08-09T11:03:34.384Z,35.7
2022-08-09T11:05:54.612Z,35.7
2022-08-09T11:07:03.749Z,32.5
2022-08-09T11:08:12.890Z,36
2022-08-09T11:09:23.016Z,32.2
2022-08-09T11:10:33.127Z,32.8
2022-08-09T11:11:43.250Z,33.1
2022-08-09T11:12:53.357Z,33.1
2022-08-09T11:14:03.472Z,33.1
2022-08-09T11:15:13.591Z,30.2
2022-08-09T11:16:23.716Z,33.5
2022-08-09T11:17:33.827Z,34.1
2022-08-09T11:18:43.905Z,36.7
2022-08-09T11:19:53.097Z,34.4
2022-08-09T11:21:02.491Z,40.2
2022-08-09T11:22:12.336Z,40.2
2022-08-09T11:23:22.461Z,33.8
2022-08-09T11:24:32.586Z,34.8
2022-08-09T11:25:42.691Z,34.4
2022-08-09T11:26:52.810Z,34.1
2022-08-09T11:28:02.939Z,28.6
2022-08-09T11:29:13.319Z,35.4
2022-08-09T11:30:23.163Z,36
2022-08-09T11:31:33.551Z,29.6
2022-08-09T11:33:53.513Z,36.7
2022-08-09T11:35:03.642Z,31.5
2022-08-09T11:36:13.033Z,38
2022-08-09T11:37:22.884Z,37
2022-08-09T11:38:33.009Z,37.3
2022-08-09T11:39:43.121Z,37
2022-08-09T11:40:53.248Z,37
2022-08-09T11:42:03.350Z,36.4
2022-08-09T11:44:23.598Z,35.4
2022-08-09T11:45:33.717Z,35.1
2022-08-09T11:46:43.834Z,32.5
2022-08-09T11:47:53.938Z,34.8
2022-08-09T11:49:04.054Z,29
2022-08-09T11:50:14.182Z,28
2022-08-09T11:51:23.318Z,40.2
2022-08-09T11:52:33.693Z,39.9
2022-08-09T11:54:53.662Z,28.6
2022-08-09T11:56:02.819Z,34.4
2022-08-09T11:57:11.939Z,30.2
2022-08-09T11:59:32.177Z,34.4
2022-08-09T12:00:42.298Z,34.4
2022-08-09T12:01:52.407Z,31.2
2022-08-09T12:03:02.531Z,28.3
2022-08-09T12:04:12.648Z,39.9
2022-08-09T12:05:22.771Z,38.6
2022-08-09T12:06:32.875Z,30.2
2022-08-09T12:07:42.996Z,39.6
2022-08-09T12:08:53.124Z,33.8
2022-08-09T12:10:03.239Z,42.2
2022-08-09T12:11:13.356Z,38.9
2022-08-09T12:12:22.487Z,34.4
2022-08-09T12:13:32.596Z,32.5
2022-08-09T12:14:42.722Z,34.8
2022-08-09T12:15:52.844Z,30.6
2022-08-09T12:17:02.955Z,34.4
2022-08-09T12:18:13.068Z,36.7
2022-08-09T12:19:23.194Z,35.1
2022-08-09T12:20:33.582Z,34.1
2022-08-09T12:21:42.458Z,34.4
2022-08-09T12:22:51.595Z,32.2
2022-08-09T12:24:01.698Z,34.4
2022-08-09T12:25:11.816Z,32.8
2022-08-09T12:26:21.936Z,34.8
2022-08-09T12:27:32.060Z,34.1
2022-08-09T12:28:42.171Z,34.1
2022-08-09T12:29:52.298Z,35.1
2022-08-09T12:31:02.419Z,34.1
2022-08-09T12:32:12.521Z,29
2022-08-09T12:33:22.645Z,27.3
2022-08-09T12:34:32.763Z,33.1
2022-08-09T12:35:42.882Z,33.5
2022-08-09T12:36:52.988Z,32.8
2022-08-09T12:38:02.126Z,32.5
2022-08-09T12:40:22.364Z,32.5
2022-08-09T12:41:32.489Z,37
2022-08-09T12:43:52.710Z,32.8
2022-08-09T12:45:01.858Z,27.3
2022-08-09T12:46:10.993Z,31.2
2022-08-09T12:47:21.121Z,35.4
2022-08-09T12:48:31.491Z,32.2
2022-08-09T12:49:41.339Z,36
2022-08-09T12:50:51.463Z,30.6
2022-08-09T12:52:01.589Z,29.9
2022-08-09T12:53:11.699Z,26.1
2022-08-09T12:54:22.082Z,25.4
2022-08-09T12:55:31.929Z,30.2
2022-08-09T12:56:42.055Z,30.6
2022-08-09T12:57:51.198Z,28.6
2022-08-09T12:59:00.328Z,30.2
2022-08-09T13:00:10.452Z,22.2
2022-08-09T13:01:20.555Z,28.3
2022-08-09T13:02:30.680Z,24.8
2022-08-09T13:03:40.803Z,35.4
2022-08-09T13:04:50.913Z,29.6
2022-08-09T13:06:01.034Z,29.6
2022-08-09T13:07:11.153Z,29.9
2022-08-09T13:08:21.272Z,29.6
2022-08-09T13:09:31.377Z,25.4
2022-08-09T13:10:41.498Z,24.8
2022-08-09T13:11:51.616Z,24.1
2022-08-09T13:13:01.738Z,29.9
2022-08-09T13:14:10.870Z,25.4
2022-08-09T13:16:31.096Z,30.9
2022-08-09T13:17:41.225Z,29.9
2022-08-09T13:18:51.330Z,23.8
2022-08-09T13:20:01.458Z,36.4
2022-08-09T13:21:11.836Z,30.6
2022-08-09T13:22:21.682Z,29.6
2022-08-09T13:23:32.122Z,30.2
2022-08-09T13:25:52.052Z,30.2
2022-08-09T13:27:02.162Z,35.4
2022-08-09T13:28:12.282Z,30.6
2022-08-09T13:30:31.788Z,30.2
2022-08-09T13:31:40.674Z,29.6
2022-08-09T13:32:49.811Z,29.6
2022-08-09T13:33:59.933Z,19.9
2022-08-09T13:35:10.035Z,25.7
2022-08-09T13:36:20.166Z,29.9
2022-08-09T13:37:30.283Z,35.4
2022-08-09T13:38:40.389Z,29.6
2022-08-09T13:39:50.511Z,29
2022-08-09T13:41:00.633Z,29.6
2022-08-09T13:42:10.740Z,29.3
2022-08-09T13:43:21.127Z,29
2022-08-09T13:44:30.006Z,23.2
2022-08-09T13:46:49.252Z,28.6
2022-08-09T13:47:59.370Z,33.8
2022-08-09T13:49:09.493Z,29
2022-08-09T13:50:19.613Z,29.6
2022-08-09T13:51:29.736Z,30.2
2022-08-09T13:53:49.954Z,29.6
2022-08-09T13:55:00.080Z,32.8
2022-08-09T13:56:10.190Z,28.6
2022-08-09T13:57:20.317Z,27.7
2022-08-09T13:58:30.426Z,27.7
2022-08-09T14:00:50.671Z,21.9
2022-08-09T14:01:59.809Z,28.3
2022-08-09T14:03:08.939Z,24.4
2022-08-09T14:04:19.062Z,33.8
2022-08-09T14:05:29.440Z,27.3
2022-08-09T14:06:39.303Z,27.3
2022-08-09T14:07:49.420Z,27
2022-08-09T14:08:59.525Z,26.7
2022-08-09T14:10:09.655Z,33.1
2022-08-09T14:11:19.759Z,19
2022-08-09T14:12:29.882Z,27
2022-08-09T14:14:50.113Z,32.2
2022-08-09T14:16:00.240Z,26.4
2022-08-09T14:17:10.347Z,33.5
2022-08-09T14:18:19.486Z,26.4
2022-08-09T14:19:29.604Z,26.4
2022-08-09T14:21:49.841Z,25.7
2022-08-09T14:22:58.977Z,34.1
2022-08-09T14:24:08.111Z,26.1
2022-08-09T14:25:18.237Z,26.1
2022-08-09T14:26:28.346Z,25.7
2022-08-09T14:27:38.458Z,26.4
2022-08-09T14:28:48.583Z,26.1
2022-08-09T14:29:58.693Z,25.7
2022-08-09T14:31:08.819Z,25.7
2022-08-09T14:32:18.937Z,31.9
2022-08-09T14:33:29.059Z,21.9
2022-08-09T14:35:49.283Z,25.1
2022-08-09T14:36:59.405Z,25.1
2022-08-09T14:38:09.522Z,26.4
2022-08-09T14:39:18.928Z,25.7
2022-08-09T14:40:28.781Z,25.4
2022-08-09T14:41:38.883Z,25.4
2022-08-09T14:42:49.004Z,21.5
2022-08-09T14:43:59.134Z,25.1
2022-08-09T14:45:09.241Z,25.4
2022-08-09T14:46:19.366Z,30.6
2022-08-09T14:47:29.471Z,25.1
2022-08-09T14:50:58.863Z,25.1
2022-08-09T14:52:07.991Z,29
2022-08-09T14:53:18.113Z,24.8
2022-08-09T14:54:28.215Z,30.6
2022-08-09T14:55:38.336Z,24.8
2022-08-09T14:56:48.463Z,25.1
2022-08-09T14:57:58.573Z,24.8
2022-08-09T14:59:08.701Z,18.6
2022-08-09T15:00:19.083Z,26.1
2022-08-09T15:01:28.928Z,25.1
2022-08-09T15:03:49.173Z,24.4
2022-08-09T15:04:59.280Z,24.1
2022-08-09T15:06:09.662Z,29
2022-08-09T15:07:18.543Z,18.6
2022-08-09T15:08:28.652Z,18.3
2022-08-09T15:09:38.777Z,30.6
2022-08-09T15:10:48.876Z,19
2022-08-09T15:11:58.996Z,29.9
2022-08-09T15:13:09.122Z,24.1
2022-08-09T15:14:19.248Z,19.9
2022-08-09T15:15:28.383Z,21.2
2022-08-09T15:17:47.629Z,23.8
2022-08-09T15:18:57.687Z,24.1
2022-08-09T15:20:07.861Z,19.3
2022-08-09T15:21:17.986Z,23.8
2022-08-09T15:22:28.109Z,24.1
2022-08-09T15:24:48.341Z,29
2022-08-09T15:25:58.448Z,27
2022-08-09T15:27:08.574Z,23.5
2022-08-09T15:28:18.702Z,23.2
2022-08-09T15:29:28.801Z,23.5
2022-08-09T15:31:49.051Z,22.5
2022-08-09T15:32:58.185Z,23.5
2022-08-09T15:34:07.327Z,27.3
2022-08-09T15:35:17.448Z,24.1
2022-08-09T15:36:27.549Z,23.2
2022-08-09T15:37:37.680Z,23.2
2022-08-09T15:38:48.048Z,23.2
2022-08-09T15:39:57.909Z,22.8
2022-08-09T15:41:08.036Z,23.5
2022-08-09T15:42:18.141Z,18
2022-08-09T15:43:28.264Z,23.2
2022-08-09T15:45:48.490Z,20.3
2022-08-09T15:46:58.612Z,23.5
2022-08-09T15:48:08.726Z,22.8
2022-08-09T15:50:27.991Z,24.1
2022-08-09T15:51:37.129Z,21.5
2022-08-09T15:52:47.501Z,23.2
2022-08-09T15:53:57.353Z,22.2
2022-08-09T15:55:07.477Z,23.2
2022-08-09T15:56:17.535Z,22.5
2022-08-09T15:57:27.718Z,21.9
2022-08-09T15:59:47.951Z,18
2022-08-09T16:00:58.072Z,22.8
2022-08-09T16:02:08.188Z,19.9
2022-08-09T16:03:18.310Z,22.8
2022-08-09T16:04:28.414Z,22.5
2022-08-09T16:05:38.542Z,22.2
2022-08-09T16:06:47.677Z,22.5
2022-08-09T16:07:57.726Z,22.8
2022-08-09T16:09:08.177Z,25.7
2022-08-09T16:11:28.141Z,22.5
2022-08-09T16:13:48.635Z,22.5
2022-08-09T16:14:58.750Z,19
2022-08-09T16:16:08.606Z,21.5
2022-08-09T16:17:18.724Z,22.2
2022-08-09T16:18:28.851Z,25.1
2022-08-09T16:20:49.086Z,22.5
2022-08-09T16:21:58.220Z,22.8
2022-08-09T16:23:08.333Z,21.2
2022-08-09T16:24:18.453Z,22.5
2022-08-09T16:25:28.570Z,27.7
2022-08-09T16:27:48.795Z,22.5
2022-08-09T16:28:58.913Z,22.5
2022-08-09T16:30:09.028Z,25.1
2022-08-09T16:31:19.150Z,16.1
2022-08-09T16:32:29.264Z,22.5
2022-08-09T16:33:39.382Z,27.7
2022-08-09T16:34:49.506Z,22.5
2022-08-09T16:35:59.628Z,18.3
2022-08-09T16:37:08.762Z,17
2022-08-09T16:38:18.865Z,18
2022-08-09T16:39:28.994Z,22.2
2022-08-09T16:40:39.114Z,25.1
2022-08-09T16:41:49.222Z,21.9
2022-08-09T16:42:59.336Z,25.7
2022-08-09T16:44:09.459Z,17
2022-08-09T16:45:18.599Z,21.9
2022-08-09T16:46:27.000Z,22.2
2022-08-09T16:47:38.112Z,22.5
2022-08-09T16:48:47.979Z,15.4
2022-08-09T16:49:58.089Z,21.9
2022-08-09T16:51:08.207Z,28.3
2022-08-09T16:52:18.317Z,22.5
2022-08-09T16:53:28.443Z,22.2
2022-08-09T16:55:48.669Z,17.4
2022-08-09T16:56:58.795Z,21.9
2022-08-09T16:58:08.919Z,21.5
2022-08-09T16:59:19.030Z,25.1